createdAt,value
2019-04-06T00:00:38.726Z,29.48
2019-04-06T00:03:41.995Z,28.67
2019-04-06T00:06:45.251Z,28.30
2019-04-06T00:09:48.385Z,27.07
2019-04-06T00:12:51.602Z,26.55
2019-04-06T00:15:54.861Z,27.10
2019-04-06T00:18:57.875Z,27.75
2019-04-06T00:22:01.069Z,26.15
2019-04-06T00:25:04.469Z,26.50
2019-04-06T00:28:07.694Z,25.65
2019-04-06T00:31:29.313Z,26.48
2019-04-06T00:34:32.618Z,24.18
2019-04-06T00:37:35.788Z,25.20
2019-04-06T00:40:39.016Z,23.20
2019-04-06T00:43:42.290Z,23.80
2019-04-06T00:46:45.613Z,23.22
2019-04-06T00:49:48.874Z,23.15
2019-04-06T00:52:52.069Z,24.45
2019-04-06T00:55:56.334Z,23.50
2019-04-06T00:58:59.593Z,22.87
2019-04-06T01:02:02.874Z,22.50
2019-04-06T01:05:06.484Z,23.25
2019-04-06T01:08:10.829Z,22.35
2019-04-06T01:11:14.033Z,23.12
2019-04-06T01:14:19.067Z,21.90
2019-04-06T01:17:23.164Z,22.82
2019-04-06T01:20:26.250Z,22.22
2019-04-06T01:23:29.652Z,22.62
2019-04-06T01:26:34.382Z,21.10
2019-04-06T01:29:38.600Z,23.05
2019-04-06T01:32:41.911Z,21.82
2019-04-06T01:35:45.089Z,21.68
2019-04-06T01:38:48.293Z,21.93
2019-04-06T01:41:51.425Z,21.00
2019-04-06T01:44:54.681Z,22.30
2019-04-06T01:47:57.879Z,22.77
2019-04-06T01:51:01.174Z,20.60
2019-04-06T01:54:04.365Z,21.27
2019-04-06T01:57:08.587Z,20.23
2019-04-06T02:00:13.297Z,20.70
2019-04-06T02:03:16.513Z,20.20
2019-04-06T02:06:19.805Z,19.85
2019-04-06T02:09:23.005Z,20.60
2019-04-06T02:12:26.307Z,19.52
2019-04-06T02:15:29.606Z,20.27
2019-04-06T02:18:32.699Z,19.98
2019-04-06T02:21:35.982Z,18.73
2019-04-06T02:24:39.181Z,20.30
2019-04-06T02:27:42.586Z,19.67
2019-04-06T02:31:06.673Z,20.08
2019-04-06T02:34:20.042Z,19.90
2019-04-06T02:37:45.524Z,21.33
2019-04-06T02:41:00.897Z,19.52
2019-04-06T02:44:04.421Z,19.37
2019-04-06T02:47:07.647Z,19.00
2019-04-06T02:50:11.157Z,19.42
2019-04-06T02:53:14.477Z,20.05
2019-04-06T02:56:17.635Z,20.88
2019-04-06T02:59:21.072Z,20.30
2019-04-06T03:02:25.289Z,20.17
2019-04-06T03:05:29.122Z,20.30
2019-04-06T03:08:32.318Z,18.98
2019-04-06T03:11:36.487Z,19.67
2019-04-06T03:14:39.566Z,20.90
2019-04-06T03:17:42.694Z,20.50
2019-04-06T03:20:45.853Z,21.12
2019-04-06T03:23:51.618Z,19.48
2019-04-06T03:27:02.109Z,20.30
2019-04-06T03:29:59.583Z,20.68
2019-04-06T03:33:02.878Z,18.62
2019-04-06T03:36:05.953Z,20.45
2019-04-06T03:39:09.193Z,19.90
2019-04-06T03:42:12.410Z,18.42
2019-04-06T03:45:15.613Z,19.98
2019-04-06T03:48:19.032Z,21.25
2019-04-06T03:51:22.102Z,20.12
2019-04-06T03:54:25.302Z,20.27
2019-04-06T03:57:28.657Z,20.90
2019-04-06T04:00:33.018Z,20.02
2019-04-06T04:03:36.266Z,21.27
2019-04-06T04:06:39.463Z,20.30
2019-04-06T04:09:42.781Z,19.50
2019-04-06T04:12:46.073Z,19.85
2019-04-06T04:15:49.307Z,21.97
2019-04-06T04:18:52.538Z,20.65
2019-04-06T04:21:55.847Z,21.60
2019-04-06T04:24:59.096Z,21.45
2019-04-06T04:28:02.182Z,20.15
2019-04-06T04:31:05.278Z,19.80
2019-04-06T04:34:08.374Z,20.35
2019-04-06T04:37:11.674Z,19.55
2019-04-06T04:40:14.778Z,19.75
2019-04-06T04:43:17.900Z,20.05
2019-04-06T04:46:21.070Z,20.72
2019-04-06T04:49:24.243Z,20.57
2019-04-06T04:52:27.539Z,20.62
2019-04-06T04:55:30.746Z,20.48
2019-04-06T04:58:33.984Z,20.05
2019-04-06T05:01:37.130Z,20.02
2019-04-06T05:04:40.330Z,20.20
2019-04-06T05:07:43.513Z,20.95
2019-04-06T05:10:46.913Z,21.27
2019-04-06T05:13:51.752Z,21.15
2019-04-06T05:16:54.946Z,20.97
2019-04-06T05:19:58.241Z,20.12
2019-04-06T05:23:01.433Z,21.15
2019-04-06T05:26:05.015Z,21.12
2019-04-06T05:29:08.242Z,21.17
2019-04-06T05:32:11.557Z,20.45
2019-04-06T05:35:14.831Z,19.95
2019-04-06T05:38:18.031Z,21.12
2019-04-06T05:41:21.257Z,19.95
2019-04-06T05:44:24.357Z,20.10
2019-04-06T05:47:27.405Z,21.57
2019-04-06T05:50:30.674Z,20.57
2019-04-06T05:53:33.708Z,19.87
2019-04-06T05:56:37.101Z,21.20
2019-04-06T05:59:41.003Z,21.33
2019-04-06T06:02:44.291Z,20.50
2019-04-06T06:05:47.651Z,21.48
2019-04-06T06:08:51.047Z,22.87
2019-04-06T06:11:55.585Z,20.12
2019-04-06T06:14:59.384Z,20.57
2019-04-06T06:18:02.538Z,21.62
2019-04-06T06:21:05.675Z,22.30
2019-04-06T06:24:08.776Z,21.37
2019-04-06T06:27:11.989Z,21.20
2019-04-06T06:30:15.420Z,20.45
2019-04-06T06:33:18.677Z,20.43
2019-04-06T06:36:22.037Z,21.20
2019-04-06T06:39:25.257Z,21.65
2019-04-06T06:42:28.472Z,22.05
2019-04-06T06:45:31.840Z,21.25
2019-04-06T06:48:35.002Z,21.37
2019-04-06T06:51:38.100Z,21.73
2019-04-06T06:54:41.330Z,22.60
2019-04-06T06:57:44.663Z,21.55
2019-04-06T07:00:50.839Z,20.70
2019-04-06T07:03:55.337Z,20.88
2019-04-06T07:06:58.933Z,21.17
2019-04-06T07:10:05.730Z,21.87
2019-04-06T07:13:07.343Z,21.45
2019-04-06T07:16:10.609Z,21.23
2019-04-06T07:19:14.040Z,21.27
2019-04-06T07:22:17.218Z,20.77
2019-04-06T07:25:21.572Z,21.90
2019-04-06T07:28:36.317Z,20.75
2019-04-06T07:31:29.874Z,22.82
2019-04-06T07:34:32.996Z,22.70
2019-04-06T07:37:36.154Z,21.25
2019-04-06T07:40:39.605Z,21.48
2019-04-06T07:43:42.865Z,22.02
2019-04-06T07:46:45.954Z,21.55
2019-04-06T07:49:49.283Z,22.85
2019-04-06T07:52:52.437Z,22.93
2019-04-06T07:55:55.965Z,22.58
2019-04-06T07:58:59.029Z,21.55
2019-04-06T08:02:02.334Z,21.97
2019-04-06T08:05:05.870Z,22.05
2019-04-06T08:08:09.138Z,21.45
2019-04-06T08:11:12.230Z,21.95
2019-04-06T08:14:15.418Z,21.05
2019-04-06T08:17:18.637Z,21.40
2019-04-06T08:20:21.734Z,20.60
2019-04-06T08:23:25.826Z,20.52
2019-04-06T08:26:39.583Z,20.12
2019-04-06T08:29:42.656Z,20.32
2019-04-06T08:32:46.062Z,21.85
2019-04-06T08:35:49.362Z,20.85
2019-04-06T08:38:52.546Z,20.55
2019-04-06T08:41:55.755Z,20.15
2019-04-06T08:44:58.942Z,20.57
2019-04-06T08:48:02.169Z,20.02
2019-04-06T08:51:05.236Z,19.92
2019-04-06T08:54:08.522Z,19.80
2019-04-06T08:57:11.821Z,20.45
2019-04-06T09:00:15.366Z,19.82
2019-04-06T09:03:18.530Z,20.23
2019-04-06T09:06:22.050Z,20.23
2019-04-06T09:09:25.336Z,19.37
2019-04-06T09:12:28.653Z,20.27
2019-04-06T09:15:31.975Z,18.42
2019-04-06T09:18:35.326Z,18.48
2019-04-06T09:21:38.574Z,20.23
2019-04-06T09:24:41.705Z,20.05
2019-04-06T09:27:44.846Z,19.67
2019-04-06T09:30:48.028Z,18.67
2019-04-06T09:33:51.293Z,18.60
2019-04-06T09:36:54.521Z,18.07
2019-04-06T09:39:57.585Z,17.32
2019-04-06T09:43:01.837Z,19.25
2019-04-06T09:46:33.726Z,17.77
2019-04-06T09:49:59.972Z,16.75
2019-04-06T09:53:08.058Z,16.52
2019-04-06T09:56:37.011Z,16.67
2019-04-06T10:00:05.746Z,15.83
2019-04-06T10:03:27.198Z,14.90
2019-04-06T10:06:55.785Z,15.68
2019-04-06T10:10:17.185Z,14.78
2019-04-06T10:13:45.306Z,14.87
2019-04-06T10:17:08.072Z,14.58
2019-04-06T10:20:23.390Z,14.15
2019-04-06T10:23:54.541Z,14.65
2019-04-06T10:27:16.207Z,14.83
2019-04-06T10:30:39.295Z,13.85
2019-04-06T10:33:59.494Z,15.13
2019-04-06T10:37:20.193Z,15.03
2019-04-06T10:40:39.097Z,15.28
2019-04-06T10:43:49.618Z,15.23
2019-04-06T10:47:13.010Z,14.73
2019-04-06T10:50:37.530Z,14.65
2019-04-06T10:54:12.149Z,17.00
2019-04-06T10:57:34.759Z,16.42
2019-04-06T11:00:57.345Z,16.45
2019-04-06T11:04:11.176Z,16.45
2019-04-06T11:07:33.811Z,15.70
2019-04-06T11:11:11.387Z,16.87
2019-04-06T11:14:39.873Z,15.98
2019-04-06T11:18:01.161Z,15.83
2019-04-06T11:21:17.670Z,16.95
2019-04-06T11:24:38.886Z,14.93
2019-04-06T11:28:03.418Z,15.18
2019-04-06T11:31:14.294Z,14.73
2019-04-06T11:34:35.353Z,14.87
2019-04-06T11:38:06.749Z,15.08
2019-04-06T11:41:18.943Z,15.50
2019-04-06T11:44:44.803Z,15.58
2019-04-06T11:47:58.983Z,16.32
2019-04-06T11:51:36.592Z,15.68
2019-04-06T11:55:02.112Z,16.52
2019-04-06T11:58:14.014Z,15.15
2019-04-06T12:01:34.817Z,16.87
2019-04-06T12:05:00.182Z,15.55
2019-04-06T12:08:25.741Z,15.48
2019-04-06T12:11:54.164Z,16.15
2019-04-06T12:15:09.001Z,15.58
2019-04-06T12:18:26.030Z,15.10
2019-04-06T12:21:48.589Z,15.32
2019-04-06T12:25:29.341Z,16.80
2019-04-06T12:28:47.593Z,15.32
2019-04-06T12:32:10.129Z,15.03
2019-04-06T12:35:35.238Z,14.68
2019-04-06T12:39:04.580Z,14.60
2019-04-06T12:42:25.106Z,15.50
2019-04-06T12:45:51.081Z,15.95
2019-04-06T12:49:13.618Z,14.87
2019-04-06T12:52:48.483Z,14.18
2019-04-06T12:56:12.125Z,14.53
2019-04-06T12:59:35.361Z,15.38
2019-04-06T13:03:00.285Z,15.32
2019-04-06T13:06:34.841Z,14.65
2019-04-06T13:09:52.785Z,14.45
2019-04-06T13:13:21.226Z,14.43
2019-04-06T13:16:41.777Z,15.50
2019-04-06T13:20:22.474Z,14.53
2019-04-06T13:23:42.678Z,14.53
2019-04-06T13:27:01.742Z,14.25
2019-04-06T13:30:31.446Z,15.18
2019-04-06T13:33:56.861Z,14.10
2019-04-06T13:37:21.138Z,14.43
2019-04-06T13:40:41.578Z,14.00
2019-04-06T13:43:55.651Z,14.13
2019-04-06T13:47:21.225Z,13.98
2019-04-06T13:50:35.060Z,13.68
2019-04-06T13:54:06.586Z,13.48
2019-04-06T13:57:28.123Z,15.15
2019-04-06T14:00:50.600Z,14.28
2019-04-06T14:04:13.533Z,14.55
2019-04-06T14:07:36.173Z,13.72
2019-04-06T14:11:01.481Z,13.40
2019-04-06T14:14:33.250Z,12.55
2019-04-06T14:18:01.728Z,12.60
2019-04-06T14:21:24.443Z,11.78
2019-04-06T14:24:41.941Z,11.83
2019-04-06T14:27:57.830Z,12.80
2019-04-06T14:31:27.445Z,12.33
2019-04-06T14:34:43.715Z,12.18
2019-04-06T14:37:59.433Z,11.33
2019-04-06T14:41:30.933Z,11.15
2019-04-06T14:44:46.221Z,11.97
2019-04-06T14:48:05.283Z,11.68
2019-04-06T14:51:14.681Z,11.55
2019-04-06T14:54:33.541Z,12.85
2019-04-06T14:57:54.589Z,13.83
2019-04-06T15:01:19.815Z,12.28
2019-04-06T15:04:42.312Z,10.93
2019-04-06T15:08:04.558Z,11.45
2019-04-06T15:11:29.848Z,11.83
2019-04-06T15:14:43.093Z,12.45
2019-04-06T15:18:20.621Z,12.30
2019-04-06T15:21:46.971Z,12.28
2019-04-06T15:25:21.510Z,11.90
2019-04-06T15:28:53.125Z,11.73
2019-04-06T15:32:21.478Z,11.22
2019-04-06T15:35:42.663Z,12.35
2019-04-06T15:39:08.050Z,12.18
2019-04-06T15:42:33.553Z,12.50
2019-04-06T15:45:58.431Z,13.15
2019-04-06T15:49:21.103Z,12.70
2019-04-06T15:52:46.329Z,12.47
2019-04-06T15:56:01.421Z,12.18
2019-04-06T15:59:24.458Z,12.30
2019-04-06T16:03:05.157Z,12.33
2019-04-06T16:06:36.485Z,12.15
2019-04-06T16:09:48.485Z,12.23
2019-04-06T16:13:03.262Z,13.43
2019-04-06T16:16:20.281Z,12.60
2019-04-06T16:19:41.458Z,12.33
2019-04-06T16:23:12.766Z,12.80
2019-04-06T16:26:31.936Z,12.78
2019-04-06T16:29:49.757Z,12.85
2019-04-06T16:33:09.092Z,12.13
2019-04-06T16:36:32.300Z,12.35
2019-04-06T16:39:45.790Z,11.90
2019-04-06T16:43:26.428Z,13.13
2019-04-06T16:47:08.311Z,13.35
2019-04-06T16:50:29.587Z,12.20
2019-04-06T16:53:55.061Z,12.43
2019-04-06T16:57:20.421Z,12.78
2019-04-06T17:00:42.994Z,13.18
2019-04-06T17:04:10.226Z,13.43
2019-04-06T17:07:19.463Z,13.55
2019-04-06T17:10:42.144Z,13.65
2019-04-06T17:13:56.313Z,13.53
2019-04-06T17:17:30.020Z,12.80
2019-04-06T17:20:58.897Z,13.95
2019-04-06T17:24:30.600Z,14.13
2019-04-06T17:27:41.953Z,13.55
2019-04-06T17:31:16.522Z,15.35
2019-04-06T17:34:34.060Z,17.20
2019-04-06T17:37:53.396Z,19.25
2019-04-06T17:41:05.501Z,19.98
2019-04-06T17:44:28.200Z,20.00
2019-04-06T17:47:49.668Z,16.50
2019-04-06T17:51:11.140Z,13.93
2019-04-06T17:54:45.665Z,14.35
2019-04-06T17:58:06.958Z,15.32
2019-04-06T18:01:28.415Z,15.55
2019-04-06T18:04:55.410Z,17.02
2019-04-06T18:08:33.052Z,16.93
2019-04-06T18:12:07.829Z,20.82
2019-04-06T18:15:11.185Z,27.02
2019-04-06T18:18:14.461Z,29.50
2019-04-06T18:21:18.719Z,22.87
2019-04-06T18:24:21.990Z,21.05
2019-04-06T18:27:25.185Z,20.10
2019-04-06T18:30:28.278Z,18.27
2019-04-06T18:33:31.982Z,17.73
2019-04-06T18:36:46.921Z,17.15
2019-04-06T18:39:52.550Z,19.20
2019-04-06T18:42:56.209Z,16.97
2019-04-06T18:45:59.651Z,15.43
2019-04-06T18:49:03.283Z,15.35
2019-04-06T18:52:06.750Z,14.73
2019-04-06T18:55:11.414Z,16.07
2019-04-06T18:58:15.750Z,16.50
2019-04-06T19:01:20.364Z,17.62
2019-04-06T19:04:24.910Z,16.85
2019-04-06T19:07:28.229Z,16.65
2019-04-06T19:10:31.562Z,15.95
2019-04-06T19:13:36.348Z,16.82
2019-04-06T19:16:41.069Z,15.35
2019-04-06T19:19:45.754Z,16.07
2019-04-06T19:22:50.356Z,17.23
2019-04-06T19:25:54.941Z,17.05
2019-04-06T19:28:58.974Z,17.20
2019-04-06T19:32:03.600Z,17.75
2019-04-06T19:35:08.934Z,17.62
2019-04-06T19:38:13.134Z,16.25
2019-04-06T19:41:18.367Z,16.40
2019-04-06T19:44:22.738Z,16.48
2019-04-06T19:47:27.713Z,15.95
2019-04-06T19:50:31.894Z,16.93
2019-04-06T19:53:36.010Z,16.87
2019-04-06T19:56:39.854Z,19.25
2019-04-06T19:59:44.767Z,19.65
2019-04-06T20:02:48.953Z,20.12
2019-04-06T20:05:53.512Z,20.50
2019-04-06T20:08:57.941Z,19.75
2019-04-06T20:12:06.116Z,20.88
2019-04-06T20:15:08.842Z,19.90
2019-04-06T20:18:13.092Z,21.15
2019-04-06T20:21:17.437Z,20.23
2019-04-06T20:24:21.931Z,18.07
2019-04-06T20:27:25.818Z,18.45
2019-04-06T20:30:30.639Z,20.85
2019-04-06T20:33:46.386Z,23.50
2019-04-06T20:36:40.111Z,21.10
2019-04-06T20:39:44.687Z,22.27
2019-04-06T20:42:49.484Z,22.75
2019-04-06T20:45:54.326Z,21.87
2019-04-06T20:49:17.510Z,20.82
2019-04-06T20:52:21.749Z,20.27
2019-04-06T20:55:25.549Z,20.25
2019-04-06T20:58:29.511Z,19.82
2019-04-06T21:01:34.074Z,20.25
2019-04-06T21:04:37.321Z,18.25
2019-04-06T21:07:40.553Z,18.32
2019-04-06T21:10:44.045Z,18.48
2019-04-06T21:13:47.353Z,21.25
2019-04-06T21:16:50.541Z,21.97
2019-04-06T21:19:53.638Z,20.02
2019-04-06T21:22:57.269Z,20.40
2019-04-06T21:26:00.593Z,20.92
2019-04-06T21:29:04.794Z,18.73
2019-04-06T21:32:08.172Z,17.95
2019-04-06T21:35:11.571Z,17.98
2019-04-06T21:38:14.678Z,17.73
2019-04-06T21:41:17.946Z,18.95
2019-04-06T21:44:21.183Z,17.50
2019-04-06T21:47:25.400Z,16.15
2019-04-06T21:50:28.446Z,16.52
2019-04-06T21:53:31.978Z,17.17
2019-04-06T21:56:35.767Z,16.60
2019-04-06T21:59:40.618Z,18.20
2019-04-06T22:02:43.933Z,18.15
2019-04-06T22:05:47.740Z,15.35
2019-04-06T22:08:51.338Z,16.40
2019-04-06T22:17:17.870Z,16.20
2019-04-06T22:20:21.118Z,17.55
2019-04-06T22:23:24.314Z,18.00
2019-04-06T22:26:27.573Z,18.65
2019-04-06T22:29:30.705Z,18.45
2019-04-06T22:32:33.858Z,17.75
2019-04-06T22:35:37.365Z,17.35
2019-04-06T22:38:41.546Z,19.50
2019-04-06T22:41:44.780Z,34.33
2019-04-06T22:44:47.918Z,27.27
2019-04-06T22:47:53.109Z,28.07
2019-04-06T22:50:56.152Z,24.67
2019-04-06T22:53:59.343Z,21.52
2019-04-06T22:57:02.758Z,22.45
2019-04-06T23:00:07.865Z,20.92
2019-04-06T23:03:27.361Z,19.57
2019-04-06T23:06:35.307Z,22.37
2019-04-06T23:09:38.859Z,21.57
2019-04-06T23:12:42.185Z,19.37
2019-04-06T23:15:47.822Z,18.45
2019-04-06T23:18:50.398Z,16.07
2019-04-06T23:21:53.557Z,16.07
2019-04-06T23:24:56.790Z,14.95
2019-04-06T23:28:00.029Z,14.93
2019-04-06T23:31:03.913Z,16.00
2019-04-06T23:34:07.201Z,16.20
2019-04-06T23:37:10.965Z,15.72
2019-04-06T23:40:14.541Z,16.40
2019-04-06T23:43:18.688Z,16.55
2019-04-06T23:46:22.349Z,16.23
2019-04-06T23:49:25.766Z,18.77
2019-04-06T23:52:48.003Z,15.43
2019-04-06T23:55:51.790Z,16.30
2019-04-06T23:58:55.069Z,16.82
